Time;durP1;ratioP1;P1;durP2;ratioP2;P2;SDS_P1;SDS_P2;PMS_P1;PMS_P2;Temp;Humidity;BMP_temperature;BMP_pressure;BME280_temperature;BME280_humidity;BME280_pressure;Samples;Min_cycle;Max_cycle;Signal;HPM_P1;HPM_P2
2024/01/04 00:01:39;;;;;;;8.80;3.30;;;7.70;99.90;;;;;;4970250;28;20620;-66
2024/01/04 00:04:04;;;;;;;6.80;3.47;;;7.70;99.90;;;;;;4970013;28;20035;-65
2024/01/04 00:06:30;;;;;;;10.77;3.67;;;7.70;99.90;;;;;;4966729;28;20277;-67
2024/01/04 00:08:56;;;;;;;4.90;2.70;;;7.60;99.90;;;;;;4970663;28;20134;-66
2024/01/04 00:11:21;;;;;;;2.70;2.40;;;7.60;99.90;;;;;;4971639;28;20042;-66
2024/01/04 00:13:47;;;;;;;3.03;1.97;;;7.60;99.90;;;;;;4971884;28;20047;-66
2024/01/04 00:16:12;;;;;;;5.57;2.17;;;7.60;99.90;;;;;;4966570;28;20061;-67
2024/01/04 00:18:38;;;;;;;5.30;1.97;;;7.60;99.90;;;;;;4971674;28;20362;-67
2024/01/04 00:21:04;;;;;;;5.00;1.80;;;7.60;99.90;;;;;;4972070;28;20062;-65
2024/01/04 00:23:33;;;;;;;13.93;2.40;;;7.60;99.90;;;;;;4972259;28;20588;-66
2024/01/04 00:25:59;;;;;;;3.60;1.05;;;7.60;99.90;;;;;;4971926;28;20097;-65
2024/01/04 00:28:24;;;;;;;5.03;0.93;;;7.60;99.90;;;;;;4972504;28;20448;-66
2024/01/04 00:30:50;;;;;;;2.90;0.67;;;7.50;99.90;;;;;;4936241;28;1056412;-67
2024/01/04 00:33:15;;;;;;;6.40;0.77;;;7.50;99.90;;;;;;4971976;28;20459;-65
2024/01/04 00:35:41;;;;;;;2.70;0.90;;;7.50;99.90;;;;;;4973426;28;20070;-66
2024/01/04 00:38:07;;;;;;;1.40;0.67;;;7.50;99.90;;;;;;4973118;28;20038;-66
2024/01/04 00:40:35;;;;;;;4.82;0.93;;;7.50;99.90;;;;;;4972111;28;20133;-66
2024/01/04 00:43:00;;;;;;;2.05;0.60;;;7.50;99.90;;;;;;4971699;28;20507;-65
2024/01/04 00:45:26;;;;;;;2.08;0.45;;;7.50;99.90;;;;;;4972946;28;20134;-66
2024/01/04 00:47:52;;;;;;;6.03;0.77;;;7.40;99.90;;;;;;4973320;28;20270;-66
2024/01/04 00:50:17;;;;;;;2.10;0.60;;;7.40;99.90;;;;;;4971556;28;20050;-65
2024/01/04 00:52:43;;;;;;;1.83;0.43;;;7.40;99.90;;;;;;4972998;28;20118;-66
2024/01/04 00:55:08;;;;;;;4.23;0.53;;;7.40;99.90;;;;;;4972677;28;20039;-66
2024/01/04 00:57:34;;;;;;;3.50;0.35;;;7.40;99.90;;;;;;4972786;28;20451;-65
2024/01/04 01:00:00;;;;;;;1.83;0.30;;;7.30;99.90;;;;;;4972595;28;20077;-65
2024/01/04 01:02:25;;;;;;;1.97;0.50;;;7.30;99.90;;;;;;4974599;28;20104;-65
2024/01/04 01:04:51;;;;;;;3.63;0.40;;;7.30;99.90;;;;;;4973003;28;20464;-65
2024/01/04 01:07:16;;;;;;;3.87;0.70;;;7.30;99.90;;;;;;4974185;28;20035;-65
2024/01/04 01:09:42;;;;;;;3.23;0.50;;;7.30;99.90;;;;;;4976827;28;20534;-65
2024/01/04 01:12:08;;;;;;;1.90;0.30;;;7.30;99.90;;;;;;4972397;28;20173;-65
2024/01/04 01:14:33;;;;;;;3.30;0.57;;;7.20;99.90;;;;;;4971172;28;20134;-65
2024/01/04 01:16:59;;;;;;;5.38;0.88;;;7.20;99.90;;;;;;4970717;28;20038;-64
2024/01/04 01:19:25;;;;;;;3.40;0.40;;;7.20;99.90;;;;;;4971169;28;20071;-64
2024/01/04 01:21:50;;;;;;;5.17;0.50;;;7.20;99.90;;;;;;4967784;28;20035;-65
2024/01/04 01:24:16;;;;;;;0.60;0.30;;;7.20;99.90;;;;;;4972206;28;20065;-63
2024/01/04 01:26:43;;;;;;;3.70;0.57;;;7.20;99.90;;;;;;4969504;28;20353;-64
2024/01/04 01:29:09;;;;;;;2.05;0.30;;;7.10;99.90;;;;;;4970695;28;20314;-66
2024/01/04 01:31:42;;;;;;;5.32;0.38;;;7.10;99.90;;;;;;4970962;28;20070;-64
2024/01/04 01:34:08;;;;;;;2.65;0.40;;;7.10;99.90;;;;;;4969168;28;20039;-64
2024/01/04 01:36:34;;;;;;;5.88;0.60;;;7.10;99.90;;;;;;4970939;28;20125;-66
2024/01/04 01:38:59;;;;;;;3.85;0.60;;;7.10;99.90;;;;;;4970337;28;20066;-67
2024/01/04 01:41:25;;;;;;;3.08;0.77;;;7.10;99.90;;;;;;4970619;28;20090;-66
2024/01/04 01:43:51;;;;;;;4.83;0.70;;;7.00;99.90;;;;;;4967119;28;20047;-66
2024/01/04 01:46:17;;;;;;;4.47;0.63;;;7.00;99.90;;;;;;4972053;28;20034;-65
2024/01/04 01:48:43;;;;;;;3.55;0.40;;;7.00;99.90;;;;;;4971257;28;20125;-65
2024/01/04 01:51:10;;;;;;;2.20;0.40;;;7.00;99.90;;;;;;4970397;28;20474;-65
2024/01/04 01:53:36;;;;;;;2.15;0.45;;;7.00;99.90;;;;;;4970053;28;20133;-67
2024/01/04 01:56:03;;;;;;;1.95;0.45;;;7.00;99.90;;;;;;4969537;28;20046;-66
2024/01/04 01:58:29;;;;;;;1.85;0.50;;;7.00;99.90;;;;;;4970244;28;20030;-65
2024/01/04 02:00:55;;;;;;;5.25;1.00;;;6.90;99.90;;;;;;4966156;28;20046;-63
2024/01/04 02:03:21;;;;;;;7.18;0.80;;;6.90;99.90;;;;;;4970661;28;20491;-63
2024/01/04 02:05:47;;;;;;;4.32;0.73;;;6.90;99.90;;;;;;4971495;28;20495;-63
2024/01/04 02:08:12;;;;;;;6.63;0.70;;;6.80;99.90;;;;;;4969295;28;20051;-63
2024/01/04 02:10:38;;;;;;;5.03;1.03;;;6.80;99.90;;;;;;4969715;28;20035;-64
2024/01/04 02:13:04;;;;;;;3.42;0.60;;;6.70;99.90;;;;;;4968716;28;20038;-64
2024/01/04 02:15:29;;;;;;;4.03;0.57;;;6.70;99.90;;;;;;4971160;28;20042;-66
2024/01/04 02:17:55;;;;;;;1.33;0.67;;;6.70;99.90;;;;;;4970461;28;20090;-67
2024/01/04 02:20:21;;;;;;;2.78;0.40;;;6.70;99.90;;;;;;4967086;28;20109;-65
2024/01/04 02:22:48;;;;;;;5.43;1.03;;;6.70;99.90;;;;;;4969897;28;20030;-68
2024/01/04 02:25:13;;;;;;;4.97;1.00;;;6.70;99.90;;;;;;4967324;28;20053;-66
2024/01/04 02:27:39;;;;;;;4.55;1.08;;;6.70;99.90;;;;;;4970341;28;20043;-66
2024/01/04 02:30:05;;;;;;;2.83;0.80;;;6.70;99.90;;;;;;4968588;28;20050;-66
2024/01/04 02:32:31;;;;;;;5.15;0.88;;;6.70;99.90;;;;;;4971483;28;20443;-68
2024/01/04 02:34:57;;;;;;;2.10;0.75;;;6.70;99.90;;;;;;4969316;28;20046;-66
2024/01/04 02:37:22;;;;;;;2.85;0.80;;;6.60;99.90;;;;;;4971030;28;20097;-68
2024/01/04 02:39:48;;;;;;;4.10;0.57;;;6.60;99.90;;;;;;4970082;28;20400;-65
2024/01/04 02:42:13;;;;;;;9.93;0.70;;;6.60;99.90;;;;;;4969997;28;20118;-67
2024/01/04 02:44:39;;;;;;;2.17;0.70;;;6.60;99.90;;;;;;4967668;28;20042;-64
2024/01/04 02:47:04;;;;;;;1.77;0.60;;;6.60;99.90;;;;;;4968739;28;20038;-64
2024/01/04 02:49:30;;;;;;;10.60;1.20;;;6.60;99.90;;;;;;4968724;28;20050;-66
2024/01/04 02:51:56;;;;;;;1.30;0.50;;;6.50;99.90;;;;;;4969451;28;20047;-65
2024/01/04 02:54:21;;;;;;;4.37;0.93;;;6.50;99.90;;;;;;4970114;28;20496;-63
2024/01/04 02:56:47;;;;;;;4.80;1.00;;;6.50;99.90;;;;;;4969591;28;20098;-64
2024/01/04 02:59:12;;;;;;;5.53;0.73;;;6.50;99.90;;;;;;4970337;28;20085;-65
2024/01/04 03:01:38;;;;;;;3.40;0.47;;;6.50;99.90;;;;;;4969661;28;20031;-63
2024/01/04 03:04:04;;;;;;;4.43;0.50;;;6.50;99.90;;;;;;4968839;28;20039;-64
2024/01/04 03:06:30;;;;;;;4.15;0.73;;;6.50;99.90;;;;;;4970331;28;20034;-64
2024/01/04 03:08:56;;;;;;;6.40;1.20;;;6.50;99.90;;;;;;4970101;28;20042;-63
2024/01/04 03:11:22;;;;;;;4.93;0.73;;;6.50;99.90;;;;;;4970487;28;20050;-64
2024/01/04 03:13:48;;;;;;;2.28;0.35;;;6.40;99.90;;;;;;4969010;28;20039;-64
2024/01/04 03:16:19;;;;;;;3.30;0.43;;;6.40;99.90;;;;;;4965039;28;20162;-65
2024/01/04 03:18:45;;;;;;;3.22;0.73;;;6.40;99.90;;;;;;4968438;28;20285;-65
2024/01/04 03:21:10;;;;;;;2.50;0.63;;;6.40;99.90;;;;;;4968785;28;20050;-65
2024/01/04 03:23:36;;;;;;;8.90;1.05;;;6.40;99.90;;;;;;4969579;28;20042;-66
2024/01/04 03:26:02;;;;;;;4.53;0.97;;;6.30;99.90;;;;;;4965816;28;20027;-68
2024/01/04 03:28:27;;;;;;;7.32;1.20;;;6.30;99.90;;;;;;4969612;28;20059;-67
2024/01/04 03:30:53;;;;;;;3.33;0.53;;;6.30;99.90;;;;;;4967927;28;20042;-67
2024/01/04 03:33:18;;;;;;;3.97;1.00;;;6.30;99.90;;;;;;4968510;28;20051;-67
2024/01/04 03:35:44;;;;;;;10.97;1.83;;;6.20;99.90;;;;;;4972538;28;20046;-67
2024/01/04 03:38:10;;;;;;;7.83;1.70;;;6.20;99.90;;;;;;4973228;28;20089;-66
2024/01/04 03:40:35;;;;;;;6.13;0.87;;;6.20;99.90;;;;;;4973402;28;20031;-67
2024/01/04 03:43:02;;;;;;;4.70;0.90;;;6.10;99.90;;;;;;4972554;28;20101;-66
2024/01/04 03:45:28;;;;;;;9.48;1.50;;;6.10;99.90;;;;;;4973586;28;20042;-67
2024/01/04 03:47:54;;;;;;;13.20;1.45;;;6.10;99.90;;;;;;4973737;28;20043;-67
2024/01/04 03:50:19;;;;;;;2.55;0.82;;;6.10;99.90;;;;;;4970031;28;20333;-68
2024/01/04 03:52:45;;;;;;;4.67;0.73;;;6.00;99.90;;;;;;4972391;28;20039;-67
2024/01/04 03:55:10;;;;;;;2.40;0.67;;;6.00;99.90;;;;;;4970989;28;20054;-67
2024/01/04 03:57:36;;;;;;;2.60;0.80;;;6.10;99.90;;;;;;4972807;28;20057;-66
2024/01/04 04:00:03;;;;;;;6.07;0.57;;;6.10;99.90;;;;;;4972489;28;20105;-67
2024/01/04 04:02:28;;;;;;;4.57;0.98;;;6.10;99.90;;;;;;4973528;28;20070;-66
2024/01/04 04:04:56;;;;;;;3.37;0.83;;;6.10;99.90;;;;;;4971770;28;20500;-67
2024/01/04 04:07:23;;;;;;;8.73;1.15;;;6.10;99.90;;;;;;4973195;28;20046;-66
2024/01/04 04:09:48;;;;;;;3.97;1.02;;;6.10;99.90;;;;;;4965801;28;20519;-67
2024/01/04 04:12:14;;;;;;;8.57;1.13;;;6.00;99.90;;;;;;4974020;28;20070;-67
2024/01/04 04:14:41;;;;;;;8.03;0.80;;;6.10;99.90;;;;;;4968468;28;20035;-68
2024/01/04 04:17:07;;;;;;;10.68;0.88;;;6.00;99.90;;;;;;4970901;28;20303;-66
2024/01/04 04:19:33;;;;;;;7.30;1.53;;;6.00;99.90;;;;;;4972279;28;20039;-65
2024/01/04 04:21:58;;;;;;;7.65;1.75;;;6.10;99.90;;;;;;4975586;28;20491;-68
2024/01/04 04:24:24;;;;;;;4.07;0.60;;;6.00;99.90;;;;;;4974434;28;20038;-66
2024/01/04 04:26:49;;;;;;;8.97;1.03;;;6.00;99.90;;;;;;4970920;28;20340;-66
2024/01/04 04:29:15;;;;;;;3.80;0.70;;;6.00;99.90;;;;;;4970189;28;20407;-66
2024/01/04 04:31:41;;;;;;;2.57;0.50;;;5.90;99.90;;;;;;4972980;28;20446;-66
2024/01/04 04:34:06;;;;;;;5.00;0.93;;;5.90;99.90;;;;;;4973441;28;20081;-67
2024/01/04 04:36:32;;;;;;;3.67;0.60;;;5.90;99.90;;;;;;4970878;28;20043;-67
2024/01/04 04:39:01;;;;;;;7.13;0.68;;;5.90;99.90;;;;;;4971641;28;20077;-67
2024/01/04 04:41:27;;;;;;;7.55;0.60;;;5.90;99.90;;;;;;4971699;28;20047;-67
2024/01/04 04:43:53;;;;;;;6.18;0.47;;;5.80;99.90;;;;;;4972771;28;20089;-66
2024/01/04 04:46:18;;;;;;;3.63;1.03;;;5.80;99.90;;;;;;4972507;28;20039;-66
2024/01/04 04:48:44;;;;;;;2.93;0.43;;;5.80;99.90;;;;;;4971612;28;20144;-69
2024/01/04 04:51:11;;;;;;;3.60;0.98;;;5.80;99.90;;;;;;4972246;28;20886;-68
2024/01/04 04:53:36;;;;;;;6.65;0.70;;;5.80;99.90;;;;;;4972687;28;20045;-67
2024/01/04 04:56:02;;;;;;;3.10;0.70;;;5.80;99.90;;;;;;4966783;28;20035;-67
2024/01/04 04:58:31;;;;;;;1.30;0.50;;;5.80;99.90;;;;;;4972289;28;20226;-67
2024/01/04 05:00:57;;;;;;;1.70;0.57;;;5.90;99.90;;;;;;4969064;28;20042;-67
2024/01/04 05:03:23;;;;;;;6.17;0.60;;;5.90;99.90;;;;;;4971448;28;20043;-67
2024/01/04 05:05:49;;;;;;;3.65;0.43;;;5.90;99.90;;;;;;4970537;28;20042;-68
2024/01/04 05:08:14;;;;;;;2.10;0.60;;;5.90;99.90;;;;;;4969454;28;20034;-67
2024/01/04 05:10:40;;;;;;;1.77;0.57;;;5.90;99.90;;;;;;4969042;28;20403;-65
2024/01/04 05:13:05;;;;;;;5.20;1.23;;;5.90;99.90;;;;;;4967251;28;20057;-65
2024/01/04 05:15:31;;;;;;;2.50;0.40;;;5.90;99.90;;;;;;4972177;28;20112;-66
2024/01/04 05:17:57;;;;;;;2.70;0.97;;;5.90;99.90;;;;;;4970514;28;20071;-68
2024/01/04 05:20:22;;;;;;;4.05;0.80;;;5.90;99.90;;;;;;4970013;28;20065;-65
2024/01/04 05:22:48;;;;;;;3.13;0.93;;;5.90;99.90;;;;;;4971342;28;20097;-66
2024/01/04 05:25:14;;;;;;;2.73;0.37;;;5.90;99.90;;;;;;4969579;28;20105;-66
2024/01/04 05:27:40;;;;;;;;;;;5.90;99.90;;;;;;4972437;28;20042;-67
2024/01/04 05:30:12;;;;;;;0.75;0.30;;;5.90;99.90;;;;;;4970143;28;19926;-66
2024/01/04 05:32:38;;;;;;;5.00;0.63;;;5.90;99.90;;;;;;4970320;28;20832;-65
2024/01/04 05:35:04;;;;;;;3.53;0.53;;;5.90;99.90;;;;;;4970255;28;20109;-67
2024/01/04 05:37:30;;;;;;;1.98;0.30;;;5.90;99.90;;;;;;4976889;28;20294;-66
2024/01/04 05:39:55;;;;;;;1.53;0.40;;;5.90;99.90;;;;;;4973441;28;20085;-66
2024/01/04 05:42:21;;;;;;;3.13;0.53;;;5.90;99.90;;;;;;4971202;28;20043;-67
2024/01/04 05:44:46;;;;;;;2.30;0.20;;;5.90;99.90;;;;;;4967757;28;20440;-66
2024/01/04 05:47:12;;;;;;;1.10;0.20;;;5.90;99.90;;;;;;4970278;28;20047;-66
2024/01/04 05:49:38;;;;;;;1.67;0.40;;;5.90;99.90;;;;;;4971072;28;20043;-67
2024/01/04 05:52:04;;;;;;;3.40;0.20;;;5.90;99.90;;;;;;4971199;28;20549;-66
2024/01/04 05:54:29;;;;;;;2.67;0.45;;;5.90;99.90;;;;;;4970877;28;20038;-66
2024/01/04 05:56:55;;;;;;;5.27;0.50;;;5.90;99.90;;;;;;4968919;28;20504;-66
2024/01/04 05:59:24;;;;;;;2.38;0.30;;;5.90;99.90;;;;;;4970595;28;20104;-66
2024/01/04 06:01:51;;;;;;;4.10;0.28;;;5.90;99.90;;;;;;4967059;28;20046;-66
2024/01/04 06:04:16;;;;;;;;;;;5.90;99.90;;;;;;4971801;28;20511;-67
2024/01/04 06:06:42;;;;;;;2.42;0.20;;;5.90;99.90;;;;;;4968529;28;19965;-67
2024/01/04 06:09:08;;;;;;;5.00;0.67;;;5.90;99.90;;;;;;4970716;28;20065;-66
2024/01/04 06:11:33;;;;;;;1.70;0.20;;;5.90;99.90;;;;;;4970657;28;20038;-67
2024/01/04 06:13:59;;;;;;;5.97;0.40;;;5.90;99.90;;;;;;4970349;28;20074;-66
2024/01/04 06:16:24;;;;;;;5.20;0.33;;;5.90;99.90;;;;;;4963164;28;20461;-65
2024/01/04 06:18:51;;;;;;;2.63;0.20;;;5.90;99.90;;;;;;4967961;28;20436;-66
2024/01/04 06:21:17;;;;;;;1.48;0.28;;;5.90;99.90;;;;;;4969974;28;20089;-64
2024/01/04 06:23:42;;;;;;;2.40;0.40;;;5.90;99.90;;;;;;4969871;28;20447;-63
2024/01/04 06:26:08;;;;;;;2.87;0.60;;;5.90;99.90;;;;;;4970627;28;20169;-64
2024/01/04 06:28:34;;;;;;;5.10;0.70;;;5.90;99.90;;;;;;4969205;28;20042;-66
2024/01/04 06:30:59;;;;;;;1.15;0.30;;;5.90;99.90;;;;;;4969838;28;20043;-65
2024/01/04 06:33:25;;;;;;;1.87;0.37;;;5.80;99.90;;;;;;4965695;28;20042;-64
2024/01/04 06:35:50;;;;;;;2.93;0.30;;;5.80;99.90;;;;;;4962610;28;20030;-66
2024/01/04 06:38:16;;;;;;;4.77;0.37;;;5.80;99.90;;;;;;4968206;28;20035;-65
2024/01/04 06:40:42;;;;;;;14.37;0.67;;;5.80;99.90;;;;;;4967764;28;20043;-63
2024/01/04 06:43:10;;;;;;;5.00;0.43;;;5.80;99.90;;;;;;4963459;28;20047;-66
2024/01/04 06:45:36;;;;;;;1.95;0.30;;;5.80;99.90;;;;;;4965518;28;20274;-66
2024/01/04 06:48:07;;;;;;;0.73;0.20;;;5.80;99.90;;;;;;4962960;28;20520;-64
2024/01/04 06:50:33;;;;;;;1.45;0.30;;;5.80;99.90;;;;;;4968621;28;20507;-65
2024/01/04 06:52:58;;;;;;;2.47;0.73;;;5.70;99.90;;;;;;4968248;28;20034;-65
2024/01/04 06:55:24;;;;;;;3.30;0.20;;;5.70;99.90;;;;;;4970107;28;20031;-65
2024/01/04 06:57:50;;;;;;;2.23;0.20;;;5.70;99.90;;;;;;4970091;28;20392;-64
2024/01/04 07:00:15;;;;;;;8.13;1.03;;;5.80;99.90;;;;;;4970036;28;20047;-65
2024/01/04 07:02:41;;;;;;;3.47;0.22;;;5.70;99.90;;;;;;4970893;28;20469;-63
2024/01/04 07:05:09;;;;;;;3.42;0.63;;;5.70;99.90;;;;;;4970301;28;20106;-64
2024/01/04 07:07:36;;;;;;;3.67;0.30;;;5.70;99.90;;;;;;4970559;28;20401;-64
2024/01/04 07:10:02;;;;;;;3.97;0.43;;;5.70;99.90;;;;;;4969790;28;20050;-63
2024/01/04 07:12:28;;;;;;;3.13;0.98;;;5.70;99.90;;;;;;4970627;28;20081;-65
2024/01/04 07:14:54;;;;;;;3.00;0.47;;;5.70;99.90;;;;;;4970464;28;20090;-66
2024/01/04 07:17:21;;;;;;;2.15;0.68;;;5.70;99.90;;;;;;4970118;28;20104;-66
2024/01/04 07:19:46;;;;;;;4.93;0.80;;;5.70;99.90;;;;;;4968129;28;20077;-69
2024/01/04 07:22:12;;;;;;;3.45;0.30;;;5.70;99.90;;;;;;4969971;28;20078;-68
2024/01/04 07:24:38;;;;;;;3.67;0.75;;;5.70;99.90;;;;;;4970048;28;20039;-66
2024/01/04 07:27:05;;;;;;;0.70;0.20;;;5.70;99.90;;;;;;4969173;28;20191;-66
2024/01/04 07:29:30;;;;;;;;;;;5.70;99.90;;;;;;4968837;28;20123;-66
2024/01/04 07:31:56;;;;;;;1.85;0.35;;;5.70;99.90;;;;;;4968690;28;20009;-66
2024/01/04 07:34:22;;;;;;;1.58;0.20;;;5.70;99.90;;;;;;4970316;28;20070;-64
2024/01/04 07:36:48;;;;;;;4.63;0.40;;;5.70;99.90;;;;;;4970958;28;20042;-63
2024/01/04 07:39:15;;;;;;;1.00;0.20;;;5.70;99.90;;;;;;4975321;28;20035;-66
2024/01/04 07:41:42;;;;;;;1.95;0.25;;;5.70;99.90;;;;;;4966913;28;20290;-64
2024/01/04 07:44:09;;;;;;;4.55;0.30;;;5.60;99.90;;;;;;4966790;28;20507;-63
2024/01/04 07:46:35;;;;;;;;;;;5.70;99.90;;;;;;4963410;28;20129;-64
2024/01/04 07:49:00;;;;;;;0.77;0.20;;;5.70;99.90;;;;;;4969039;28;20117;-66
2024/01/04 07:51:26;;;;;;;10.93;0.52;;;5.70;99.90;;;;;;4964181;28;20113;-65
2024/01/04 07:53:52;;;;;;;4.22;0.20;;;5.70;99.90;;;;;;4963590;28;20034;-66
2024/01/04 07:56:18;;;;;;;1.13;0.20;;;5.70;99.90;;;;;;4962916;28;20067;-64
2024/01/04 07:58:43;;;;;;;4.17;0.70;;;5.70;99.90;;;;;;4963988;28;20656;-66
2024/01/04 08:01:09;;;;;;;3.33;0.93;;;5.70;99.90;;;;;;4967392;28;20408;-65
2024/01/04 08:03:34;;;;;;;3.47;0.33;;;5.70;99.90;;;;;;4964569;28;20118;-66
2024/01/04 08:06:00;;;;;;;0.50;0.30;;;5.60;99.90;;;;;;4968048;28;20114;-65
2024/01/04 08:08:28;;;;;;;6.00;0.50;;;5.60;99.90;;;;;;4965944;28;20042;-66
2024/01/04 08:10:54;;;;;;;3.70;0.50;;;5.60;99.90;;;;;;4967551;28;20077;-65
2024/01/04 08:13:20;;;;;;;5.60;0.85;;;5.50;99.90;;;;;;4967309;28;20438;-65
2024/01/04 08:15:45;;;;;;;1.60;0.37;;;5.60;99.90;;;;;;4966292;28;20412;-66
2024/01/04 08:18:11;;;;;;;6.53;0.30;;;5.60;99.90;;;;;;4967271;28;20047;-66
2024/01/04 08:20:37;;;;;;;3.05;0.40;;;5.60;99.90;;;;;;4964646;28;20043;-65
2024/01/04 08:23:03;;;;;;;4.80;0.30;;;5.60;99.90;;;;;;4967521;28;20514;-65
2024/01/04 08:25:29;;;;;;;4.28;0.45;;;5.60;99.90;;;;;;4969714;28;21175;-65
2024/01/04 08:27:55;;;;;;;5.47;0.40;;;5.60;99.90;;;;;;4970413;28;20117;-65
2024/01/04 08:30:20;;;;;;;4.00;0.70;;;5.50;99.90;;;;;;4970320;28;20038;-66
2024/01/04 08:32:46;;;;;;;2.85;0.47;;;5.50;99.90;;;;;;4972970;28;20034;-67
2024/01/04 08:35:12;;;;;;;3.90;0.40;;;5.50;99.90;;;;;;4972858;28;20051;-68
2024/01/04 08:37:38;;;;;;;5.13;0.88;;;5.50;99.90;;;;;;4955704;28;20222;-65
2024/01/04 08:40:04;;;;;;;3.63;0.40;;;5.50;99.90;;;;;;4970868;28;20066;-65
2024/01/04 08:42:30;;;;;;;;;;;5.50;99.90;;;;;;4973775;28;20125;-65
2024/01/04 08:44:55;;;;;;;1.52;0.50;;;5.50;99.90;;;;;;4971846;28;20413;-65
2024/01/04 08:47:22;;;;;;;2.50;0.40;;;5.50;99.90;;;;;;4968309;28;20109;-65
2024/01/04 08:49:47;;;;;;;5.18;0.63;;;5.50;99.90;;;;;;4964760;28;20294;-66
2024/01/04 08:52:13;;;;;;;29.77;1.33;;;5.50;99.90;;;;;;4969851;28;20061;-66
2024/01/04 08:54:38;;;;;;;8.83;0.77;;;5.60;99.90;;;;;;4971000;28;20083;-66
2024/01/04 08:57:06;;;;;;;2.40;0.47;;;5.60;99.90;;;;;;4966511;28;20516;-65
2024/01/04 08:59:33;;;;;;;4.22;0.40;;;5.70;99.90;;;;;;4970263;28;20522;-66
2024/01/04 09:01:58;;;;;;;3.72;0.25;;;5.70;99.90;;;;;;4970699;28;20053;-66
2024/01/04 09:04:24;;;;;;;1.23;0.20;;;5.70;99.90;;;;;;4971659;28;20121;-66
2024/01/04 09:06:49;;;;;;;6.97;0.30;;;5.70;99.90;;;;;;4971243;28;20324;-66
2024/01/04 09:09:15;;;;;;;0.87;0.20;;;5.80;99.90;;;;;;4968422;28;20507;-66
2024/01/04 09:11:42;;;;;;;4.23;0.37;;;5.80;99.90;;;;;;4967926;28;20085;-66
2024/01/04 09:14:11;;;;;;;7.55;0.88;;;5.80;99.90;;;;;;4965369;28;20082;-66
2024/01/04 09:16:39;;;;;;;0.90;0.20;;;5.80;99.90;;;;;;4945501;28;20060;-66
2024/01/04 09:19:05;;;;;;;2.35;0.40;;;5.90;99.90;;;;;;4969330;28;20155;-66
2024/01/04 09:21:31;;;;;;;2.63;0.50;;;5.80;99.90;;;;;;4969143;28;20079;-66
2024/01/04 09:23:56;;;;;;;1.98;0.20;;;5.90;99.90;;;;;;4966781;28;20047;-66
2024/01/04 09:26:22;;;;;;;2.57;0.57;;;5.90;99.90;;;;;;4967942;28;20042;-65
2024/01/04 09:28:48;;;;;;;3.43;0.63;;;5.90;99.90;;;;;;4970223;28;20053;-65
2024/01/04 09:31:13;;;;;;;4.55;0.75;;;5.90;99.90;;;;;;4968834;28;20415;-66
2024/01/04 09:33:40;;;;;;;1.53;0.20;;;6.00;99.90;;;;;;4970097;28;20039;-66
2024/01/04 09:36:07;;;;;;;2.83;0.30;;;5.90;99.90;;;;;;4966954;28;20526;-66
2024/01/04 09:38:34;;;;;;;5.35;0.70;;;6.00;99.90;;;;;;4966340;28;20271;-66
2024/01/04 09:41:20;;;;;;;3.25;0.47;;;6.00;99.90;;;;;;4968640;28;20034;-66
2024/01/04 09:43:51;;;;;;;4.22;0.75;;;6.00;99.90;;;;;;4968487;28;20062;-66
2024/01/04 09:46:19;;;;;;;1.92;0.30;;;6.00;99.90;;;;;;4967658;28;20574;-66
2024/01/04 09:48:53;;;;;;;1.02;0.30;;;6.00;99.90;;;;;;4969797;28;20038;-66
2024/01/04 09:51:19;;;;;;;2.90;0.40;;;6.10;99.90;;;;;;4968281;28;20159;-66
2024/01/04 09:53:45;;;;;;;5.38;0.63;;;6.10;99.90;;;;;;4970580;28;20508;-65
2024/01/04 09:56:14;;;;;;;4.60;0.30;;;6.10;99.90;;;;;;4968731;28;20051;-65
2024/01/04 09:58:40;;;;;;;3.03;0.77;;;6.10;99.90;;;;;;4968847;28;20126;-66
2024/01/04 10:01:09;;;;;;;2.72;0.30;;;6.20;99.90;;;;;;4968830;28;20138;-66
2024/01/04 10:03:38;;;;;;;2.80;0.30;;;6.20;99.90;;;;;;4968286;28;20441;-66
2024/01/04 10:06:08;;;;;;;3.85;0.40;;;6.20;99.90;;;;;;4970330;28;20043;-66
2024/01/04 10:08:42;;;;;;;2.53;0.45;;;6.30;99.90;;;;;;4968267;28;20097;-66
2024/01/04 10:11:19;;;;;;;4.15;0.60;;;6.30;99.90;;;;;;4970087;28;20051;-66
2024/01/04 10:13:45;;;;;;;;;;;6.30;99.90;;;;;;4966153;28;20086;-68
2024/01/04 10:16:11;;;;;;;1.38;0.38;;;6.30;99.90;;;;;;4968852;28;19917;-66
2024/01/04 10:18:36;;;;;;;5.00;0.52;;;6.30;99.90;;;;;;4968476;28;20049;-66
2024/01/04 10:21:04;;;;;;;4.30;0.30;;;6.30;99.90;;;;;;4969119;28;20333;-66
2024/01/04 10:23:31;;;;;;;4.80;0.50;;;6.30;99.90;;;;;;4961192;28;20396;-67
2024/01/04 10:26:10;;;;;;;1.08;0.35;;;6.30;99.90;;;;;;4969501;28;20039;-66
2024/01/04 10:28:38;;;;;;;3.00;0.30;;;6.30;99.90;;;;;;4966965;28;20081;-66
2024/01/04 10:31:08;;;;;;;4.07;0.57;;;6.30;99.90;;;;;;4959022;28;20035;-66
2024/01/04 10:33:38;;;;;;;2.95;0.47;;;6.30;99.90;;;;;;4968290;28;20046;-66
2024/01/04 10:36:09;;;;;;;3.17;0.50;;;6.30;99.90;;;;;;4969618;28;20038;-66
2024/01/04 10:38:36;;;;;;;3.22;1.95;;;6.40;99.90;;;;;;4967412;28;20050;-66
2024/01/04 10:41:02;;;;;;;3.17;1.00;;;6.30;99.90;;;;;;4969186;28;20035;-66
2024/01/04 10:43:30;;;;;;;1.77;0.40;;;6.30;99.90;;;;;;4968587;28;20050;-66
2024/01/04 10:46:08;;;;;;;1.00;0.47;;;6.30;99.90;;;;;;4973008;28;20034;-66
2024/01/04 10:48:38;;;;;;;2.83;0.20;;;6.30;99.90;;;;;;4973125;28;20117;-66
2024/01/04 10:51:05;;;;;;;2.25;0.35;;;6.30;99.90;;;;;;4968931;28;20035;-66
2024/01/04 10:53:38;;;;;;;2.75;0.50;;;6.30;99.90;;;;;;4969192;28;20038;-66
2024/01/04 10:56:05;;;;;;;8.80;0.40;;;6.40;99.90;;;;;;4968937;28;20039;-66
2024/01/04 10:58:37;;;;;;;2.40;0.60;;;6.40;99.90;;;;;;4966150;28;20035;-68
2024/01/04 11:01:04;;;;;;;1.67;0.47;;;6.40;99.90;;;;;;4965410;28;20073;-66
2024/01/04 11:03:33;;;;;;;;;;;6.40;99.90;;;;;;4962460;28;20035;-66
2024/01/04 11:05:59;;;;;;;7.35;0.63;;;6.30;99.90;;;;;;4947132;28;19925;-66
2024/01/04 11:08:26;;;;;;;3.85;0.50;;;6.30;99.90;;;;;;4963660;28;20488;-66
2024/01/04 11:10:53;;;;;;;1.00;0.30;;;6.30;99.90;;;;;;4958691;28;20113;-66
2024/01/04 11:13:19;;;;;;;3.75;0.50;;;6.30;99.90;;;;;;4966881;28;20530;-66
2024/01/04 11:15:47;;;;;;;7.85;0.65;;;6.30;99.90;;;;;;4963071;28;20117;-66
2024/01/04 11:18:31;;;;;;;2.25;0.35;;;6.30;99.90;;;;;;4964235;28;20417;-66
2024/01/04 11:21:15;;;;;;;2.78;0.70;;;6.30;99.90;;;;;;4965039;28;20038;-68
2024/01/04 11:24:03;;;;;;;2.97;0.30;;;6.30;99.90;;;;;;4967900;28;20125;-68
2024/01/04 11:26:49;;;;;;;2.15;0.30;;;6.30;99.90;;;;;;4966064;28;20034;-68
2024/01/04 11:29:15;;;;;;;0.75;0.25;;;6.30;99.90;;;;;;4967802;28;20035;-66
2024/01/04 11:31:44;;;;;;;1.65;0.35;;;6.30;99.90;;;;;;4969084;28;20094;-66
2024/01/04 11:34:11;;;;;;;1.50;0.30;;;6.30;99.90;;;;;;4966610;28;20038;-66
2024/01/04 11:36:37;;;;;;;3.33;0.35;;;6.30;99.90;;;;;;4966833;28;20046;-66
2024/01/04 11:39:04;;;;;;;2.85;0.35;;;6.40;99.90;;;;;;4966232;28;20326;-66
2024/01/04 11:41:39;;;;;;;1.35;0.30;;;6.30;99.90;;;;;;4968065;28;20165;-67
2024/01/04 11:44:16;;;;;;;2.67;0.57;;;6.40;99.90;;;;;;4968598;28;20038;-66
2024/01/04 11:46:42;;;;;;;;;;;6.30;99.90;;;;;;4967635;28;20526;-66
2024/01/04 11:49:08;;;;;;;1.60;0.43;;;6.30;99.90;;;;;;4966824;28;19949;-66
2024/01/04 11:51:47;;;;;;;2.00;0.63;;;6.30;99.90;;;;;;4968758;28;20035;-66
2024/01/04 11:54:15;;;;;;;2.72;0.30;;;6.30;99.90;;;;;;4972982;28;20049;-66
2024/01/04 11:56:40;;;;;;;3.85;0.70;;;6.40;99.90;;;;;;4972092;28;20039;-65
2024/01/04 11:59:17;;;;;;;4.80;0.30;;;6.30;99.90;;;;;;4970480;28;20039;-66
2024/01/04 12:01:44;;;;;;;;;;;6.30;99.90;;;;;;4972604;28;20117;-67
2024/01/04 12:04:15;;;;;;;3.22;0.60;;;6.30;99.90;;;;;;4969140;28;19925;-67
2024/01/04 12:06:43;;;;;;;2.05;0.60;;;6.30;99.90;;;;;;4967802;28;20561;-65
2024/01/04 12:09:15;;;;;;;1.48;0.40;;;6.30;99.90;;;;;;4971840;28;20066;-65
2024/01/04 12:11:41;;;;;;;2.83;0.30;;;6.30;99.90;;;;;;4968602;28;20491;-65
2024/01/04 12:14:08;;;;;;;3.58;0.40;;;6.30;99.90;;;;;;4970757;28;20053;-65
2024/01/04 12:16:34;;;;;;;5.43;0.32;;;6.30;99.90;;;;;;4971359;28;20069;-65
2024/01/04 12:19:01;;;;;;;3.75;0.45;;;6.30;99.90;;;;;;4970029;28;20046;-66
2024/01/04 12:21:27;;;;;;;1.15;0.30;;;6.30;99.90;;;;;;4971872;28;20054;-65
2024/01/04 12:23:53;;;;;;;7.03;0.55;;;6.30;99.90;;;;;;4971072;28;20031;-65
2024/01/04 12:26:23;;;;;;;;;;;6.40;99.90;;;;;;4971225;28;20507;-65
2024/01/04 12:28:51;;;;;;;5.47;1.52;;;6.40;99.90;;;;;;4971911;28;19918;-65
2024/01/04 12:31:16;;;;;;;2.35;0.50;;;6.40;99.90;;;;;;4968964;28;20042;-66
2024/01/04 12:33:42;;;;;;;12.13;0.60;;;6.40;99.90;;;;;;4969786;28;20097;-65
2024/01/04 12:36:08;;;;;;;5.88;0.40;;;6.30;99.90;;;;;;4969071;28;20046;-65
2024/01/04 12:38:33;;;;;;;1.90;0.40;;;6.30;99.90;;;;;;4971498;28;20055;-65
2024/01/04 12:40:59;;;;;;;1.90;0.30;;;6.30;99.90;;;;;;4969958;28;20026;-65
2024/01/04 12:43:26;;;;;;;1.45;0.63;;;6.40;99.90;;;;;;4970180;28;20051;-65
2024/01/04 12:46:05;;;;;;;3.78;0.68;;;6.30;99.90;;;;;;4970726;28;20129;-65
2024/01/04 12:48:31;;;;;;;2.75;0.30;;;6.30;99.90;;;;;;4970497;28;20038;-65
2024/01/04 12:51:14;;;;;;;3.20;0.20;;;6.30;99.90;;;;;;4971634;28;20065;-65
2024/01/04 12:53:45;;;;;;;3.30;0.40;;;6.30;99.90;;;;;;4972316;28;20368;-65
2024/01/04 12:56:15;;;;;;;2.13;0.30;;;6.30;99.90;;;;;;4969326;28;20053;-65
2024/01/04 12:58:41;;;;;;;2.15;0.30;;;6.30;99.90;;;;;;4970255;28;20093;-65